createdAt,value
2023-04-03T00:02:35.768Z,80.85
2023-04-03T00:05:44.690Z,81.54
2023-04-03T00:09:00.641Z,81.27
2023-04-03T00:12:09.453Z,80.89
2023-04-03T00:15:18.652Z,80.01
2023-04-03T00:18:33.684Z,79.83
2023-04-03T00:21:48.663Z,80.12
2023-04-03T00:25:03.678Z,79.17
2023-04-03T00:28:18.678Z,79.57
2023-04-03T00:31:20.579Z,79.41
2023-04-03T00:34:35.662Z,79.08
2023-04-03T00:37:45.047Z,78.83
2023-04-03T00:40:55.683Z,78.67
2023-04-03T00:44:49.681Z,78.26
2023-04-03T00:47:51.676Z,78.60
2023-04-03T00:51:07.678Z,78.72
2023-04-03T00:54:16.715Z,79.17
2023-04-03T00:57:39.667Z,77.91
2023-04-03T01:01:00.655Z,78.98
2023-04-03T01:04:03.569Z,79.36
2023-04-03T01:07:30.663Z,78.61
2023-04-03T01:10:45.696Z,79.36
2023-04-03T01:13:55.045Z,77.98
2023-04-03T01:17:03.686Z,77.71
2023-04-03T01:20:30.805Z,77.88
2023-04-03T01:24:20.724Z,77.60
2023-04-03T01:27:29.278Z,77.35
2023-04-03T01:30:54.678Z,77.15
2023-04-03T01:34:10.663Z,76.91
2023-04-03T01:37:12.527Z,77.12
2023-04-03T01:40:27.664Z,76.15
2023-04-03T01:43:36.271Z,76.64
2023-04-03T01:46:50.657Z,76.10
2023-04-03T01:49:58.678Z,76.26
2023-04-03T01:53:07.387Z,76.86
2023-04-03T01:56:16.673Z,75.64
2023-04-03T01:59:32.094Z,75.79
2023-04-03T02:02:47.712Z,76.05
2023-04-03T02:05:57.676Z,76.35
2023-04-03T02:09:06.338Z,75.64
2023-04-03T02:12:14.655Z,75.18
2023-04-03T02:15:29.683Z,74.88
2023-04-03T02:18:45.666Z,74.83
2023-04-03T02:22:00.672Z,75.36
2023-04-03T02:25:09.675Z,74.94
2023-04-03T02:28:17.688Z,74.41
2023-04-03T02:31:26.570Z,74.21
2023-04-03T02:34:41.667Z,74.72
2023-04-03T02:37:56.695Z,74.54
2023-04-03T02:41:08.212Z,74.44
2023-04-03T02:44:18.686Z,73.94
2023-04-03T02:47:28.269Z,74.65
2023-04-03T02:50:36.839Z,74.94
2023-04-03T02:53:51.706Z,74.71
2023-04-03T02:56:53.646Z,74.71
2023-04-03T03:00:08.672Z,75.24
2023-04-03T03:03:17.655Z,75.37
2023-04-03T03:06:32.664Z,75.06
2023-04-03T03:09:40.680Z,75.38
2023-04-03T03:12:55.651Z,74.87
2023-04-03T03:15:57.679Z,75.41
2023-04-03T03:19:12.664Z,75.62
2023-04-03T03:22:27.659Z,75.24
2023-04-03T03:25:40.552Z,74.87
2023-04-03T03:28:55.682Z,75.52
2023-04-03T03:32:03.679Z,74.62
2023-04-03T03:35:18.687Z,74.99
2023-04-03T03:38:34.148Z,75.35
2023-04-03T03:41:42.692Z,75.42
2023-04-03T03:44:51.516Z,74.64
2023-04-03T03:48:06.707Z,74.99
2023-04-03T03:51:21.656Z,74.94
2023-04-03T03:54:30.267Z,75.22
2023-04-03T03:57:38.668Z,75.56
2023-04-03T04:00:53.986Z,76.16
2023-04-03T04:04:02.703Z,76.13
2023-04-03T04:07:11.216Z,76.99
2023-04-03T04:10:19.695Z,76.55
2023-04-03T04:13:28.204Z,77.00
2023-04-03T04:16:42.726Z,76.80
2023-04-03T04:19:44.881Z,76.96
2023-04-03T04:22:59.668Z,76.70
2023-04-03T04:26:14.694Z,76.81
2023-04-03T04:29:23.557Z,77.95
2023-04-03T04:32:38.717Z,77.83
2023-04-03T04:35:48.727Z,77.71
2023-04-03T04:38:57.335Z,77.92
2023-04-03T04:42:05.662Z,78.20
2023-04-03T04:45:14.372Z,78.61
2023-04-03T04:48:32.472Z,78.42
2023-04-03T04:51:51.493Z,78.63
2023-04-03T04:55:06.664Z,78.75
2023-04-03T04:58:28.688Z,79.06
2023-04-03T05:01:37.352Z,78.95
2023-04-03T05:04:52.768Z,78.98
2023-04-03T05:08:01.228Z,78.65
2023-04-03T05:11:15.712Z,77.93
2023-04-03T05:14:24.775Z,78.31
2023-04-03T05:17:33.320Z,78.66
2023-04-03T05:20:47.673Z,77.84
2023-04-03T05:24:02.699Z,77.27
2023-04-03T05:27:11.699Z,76.73
2023-04-03T05:30:20.339Z,76.93
2023-04-03T05:33:29.686Z,74.07
2023-04-03T05:36:38.401Z,76.49
2023-04-03T05:39:46.664Z,77.73
2023-04-03T05:42:55.277Z,78.19
2023-04-03T05:46:03.734Z,77.98
2023-04-03T05:49:18.663Z,78.34
2023-04-03T05:52:34.621Z,78.83
2023-04-03T05:55:49.691Z,78.93
2023-04-03T05:59:05.561Z,78.43
2023-04-03T06:06:12.945Z,77.95
2023-04-03T06:09:30.679Z,78.11
2023-04-03T06:12:32.750Z,77.70
2023-04-03T06:15:48.884Z,77.93
2023-04-03T06:18:51.285Z,76.30
2023-04-03T06:22:06.741Z,76.44
2023-04-03T06:25:22.783Z,75.72
2023-04-03T06:28:37.697Z,75.00
2023-04-03T06:31:53.666Z,74.43
2023-04-03T06:35:02.314Z,74.77
2023-04-03T06:38:10.661Z,74.41
2023-04-03T06:41:25.666Z,73.70
2023-04-03T06:44:28.063Z,73.81
2023-04-03T06:47:42.822Z,74.03
2023-04-03T06:50:51.265Z,73.42
2023-04-03T06:54:07.698Z,73.76
2023-04-03T06:57:09.747Z,72.85
2023-04-03T07:00:31.652Z,71.42
2023-04-03T07:03:40.664Z,70.55
2023-04-03T07:06:49.665Z,71.22
2023-04-03T07:10:04.764Z,70.37
2023-04-03T07:13:13.670Z,69.44
2023-04-03T07:16:22.320Z,69.52
2023-04-03T07:19:30.679Z,67.52
2023-04-03T07:22:39.214Z,67.67
2023-04-03T07:25:55.692Z,67.29
2023-04-03T07:28:57.597Z,68.46
2023-04-03T07:40:01.953Z,66.95
2023-04-03T07:43:17.658Z,66.61
2023-04-03T07:46:35.385Z,66.25
2023-04-03T07:49:38.334Z,65.93
2023-04-03T07:52:59.474Z,65.61
2023-04-03T07:56:17.690Z,65.45
2023-04-03T07:59:33.067Z,65.22
2023-04-03T08:02:41.740Z,64.81
2023-04-03T08:05:57.633Z,64.14
2023-04-03T08:09:04.572Z,64.73
2023-04-03T08:12:20.647Z,63.99
2023-04-03T08:15:31.266Z,64.30
2023-04-03T08:18:43.824Z,63.74
2023-04-03T08:26:10.323Z,63.88
2023-04-03T08:29:26.693Z,64.07
2023-04-03T08:32:28.786Z,63.67
2023-04-03T08:35:48.696Z,64.01
2023-04-03T08:38:57.833Z,63.21
2023-04-03T08:42:25.759Z,63.12
2023-04-03T08:45:43.789Z,63.66
2023-04-03T08:48:53.665Z,61.90
2023-04-03T08:52:19.732Z,62.64
2023-04-03T08:55:30.631Z,62.24
2023-04-03T08:58:56.729Z,60.34
2023-04-03T09:02:33.689Z,60.17
2023-04-03T09:05:44.298Z,60.34
2023-04-03T09:09:31.674Z,60.28
2023-04-03T09:13:07.664Z,59.78
2023-04-03T09:16:26.710Z,59.14
2023-04-03T09:19:56.666Z,57.46
2023-04-03T09:23:33.805Z,55.57
2023-04-03T09:27:10.563Z,54.26
2023-04-03T09:30:30.701Z,54.17
2023-04-03T09:33:40.803Z,54.02
2023-04-03T09:36:58.663Z,56.55
2023-04-03T09:40:00.675Z,56.43
2023-04-03T09:51:05.690Z,53.54
2023-04-03T09:54:36.448Z,54.10
2023-04-03T09:57:53.762Z,52.64
2023-04-03T10:01:37.804Z,53.37
2023-04-03T10:04:58.671Z,53.13
2023-04-03T10:08:23.666Z,54.18
2023-04-03T10:11:32.779Z,53.28
2023-04-03T10:15:02.704Z,53.47
2023-04-03T10:22:46.668Z,53.64
2023-04-03T10:26:12.041Z,55.45
2023-04-03T10:29:47.692Z,56.19
2023-04-03T10:32:59.676Z,55.46
2023-04-03T10:36:07.790Z,54.17
2023-04-03T10:39:39.652Z,54.54
2023-04-03T10:43:27.677Z,53.98
2023-04-03T10:46:52.660Z,54.58
2023-04-03T10:50:19.943Z,54.50
2023-04-03T10:53:54.696Z,54.59
2023-04-03T10:57:15.759Z,55.58
2023-04-03T11:00:53.735Z,54.07
2023-04-03T11:04:12.727Z,52.49
2023-04-03T11:07:27.684Z,54.69
2023-04-03T11:10:49.692Z,54.18
2023-04-03T11:14:20.671Z,52.30
2023-04-03T11:17:38.907Z,52.59
2023-04-03T11:20:55.651Z,52.47
2023-04-03T11:24:16.695Z,53.32
2023-04-03T11:27:24.608Z,51.18
2023-04-03T11:30:59.405Z,50.54
2023-04-03T11:34:31.700Z,50.34
2023-04-03T11:41:46.761Z,51.59
2023-04-03T11:45:17.080Z,48.64
2023-04-03T11:48:37.708Z,50.29
2023-04-03T11:51:46.259Z,49.06
2023-04-03T11:55:04.573Z,50.14
2023-04-03T11:58:37.680Z,49.60
2023-04-03T12:01:49.650Z,49.55
2023-04-03T12:05:34.798Z,49.53
2023-04-03T12:08:51.370Z,49.93
2023-04-03T12:11:59.669Z,50.90
2023-04-03T12:15:37.380Z,50.43
2023-04-03T12:30:38.721Z,51.67
2023-04-03T12:34:13.694Z,51.73
2023-04-03T12:37:32.724Z,51.13
2023-04-03T12:45:23.664Z,52.71
2023-04-03T12:48:45.687Z,51.78
2023-04-03T12:51:48.868Z,51.79
2023-04-03T12:55:06.697Z,51.39
2023-04-03T12:58:29.666Z,51.91
2023-04-03T13:02:00.712Z,50.34
2023-04-03T13:05:22.686Z,50.05
2023-04-03T13:08:31.973Z,50.03
2023-04-03T13:11:49.673Z,48.61
2023-04-03T13:15:02.137Z,50.02
2023-04-03T13:18:10.710Z,49.70
2023-04-03T13:21:30.680Z,49.65
2023-04-03T13:24:46.987Z,49.62
2023-04-03T13:28:13.439Z,51.82
2023-04-03T13:31:30.728Z,49.50
2023-04-03T13:34:49.686Z,51.16
2023-04-03T13:38:02.754Z,49.36
2023-04-03T13:41:38.645Z,50.50
2023-04-03T13:44:46.680Z,49.29
2023-04-03T13:48:27.765Z,48.28
2023-04-03T13:51:39.939Z,47.61
2023-04-03T13:55:02.906Z,46.93
2023-04-03T14:02:29.777Z,47.83
2023-04-03T14:05:44.683Z,46.45
2023-04-03T14:08:53.682Z,46.54
2023-04-03T14:12:30.251Z,47.33
2023-04-03T14:15:42.661Z,47.15
2023-04-03T14:23:30.818Z,47.63
2023-04-03T14:26:39.376Z,49.24
2023-04-03T14:29:55.711Z,47.52
2023-04-03T14:33:04.778Z,48.08
2023-04-03T14:36:28.741Z,47.23
2023-04-03T14:39:37.357Z,49.46
2023-04-03T14:42:45.726Z,46.08
2023-04-03T14:46:01.767Z,45.49
2023-04-03T14:49:07.087Z,45.80
2023-04-03T14:52:31.815Z,47.28
2023-04-03T14:55:46.704Z,46.73
2023-04-03T15:02:40.910Z,47.31
2023-04-03T15:05:56.686Z,49.40
2023-04-03T15:09:05.704Z,48.92
2023-04-03T15:15:36.902Z,48.74
2023-04-03T15:18:47.003Z,48.80
2023-04-03T15:22:01.689Z,50.15
2023-04-03T15:25:10.519Z,50.53
2023-04-03T15:28:43.710Z,50.66
2023-04-03T15:31:58.754Z,51.56
2023-04-03T15:35:14.800Z,49.99
2023-04-03T15:38:23.403Z,51.59
2023-04-03T15:41:38.689Z,51.59
2023-04-03T15:44:53.713Z,51.25
2023-04-03T15:48:09.756Z,50.73
2023-04-03T15:51:11.781Z,50.90
2023-04-03T15:54:26.695Z,50.80
2023-04-03T16:00:54.702Z,49.98
2023-04-03T16:04:17.445Z,50.62
2023-04-03T16:07:20.027Z,50.80
2023-04-03T16:10:35.761Z,49.98
2023-04-03T16:13:44.556Z,49.67
2023-04-03T16:16:52.711Z,49.61
2023-04-03T16:20:01.589Z,50.61
2023-04-03T16:23:10.702Z,49.95
2023-04-03T16:26:19.314Z,50.00
2023-04-03T16:29:34.732Z,49.72
2023-04-03T16:32:49.798Z,49.52
2023-04-03T16:35:58.744Z,49.85
2023-04-03T16:39:07.440Z,50.22
2023-04-03T16:42:15.851Z,50.89
2023-04-03T16:45:25.001Z,51.00
2023-04-03T16:48:40.064Z,49.78
2023-04-03T16:51:42.144Z,50.63
2023-04-03T16:54:57.003Z,50.42
2023-04-03T16:58:11.710Z,49.79
2023-04-03T17:01:22.817Z,50.72
2023-04-03T17:04:50.030Z,50.58
2023-04-03T17:08:14.809Z,50.94
2023-04-03T17:11:23.383Z,51.33
2023-04-03T17:14:38.711Z,51.06
2023-04-03T17:17:46.753Z,51.23
2023-04-03T17:21:03.730Z,51.35
2023-04-03T17:24:20.740Z,51.00
2023-04-03T17:27:29.021Z,51.84
2023-04-03T17:30:37.691Z,51.15
2023-04-03T17:33:53.018Z,51.99
2023-04-03T17:37:07.748Z,50.63
2023-04-03T17:40:17.369Z,50.96
2023-04-03T17:43:25.710Z,50.92
2023-04-03T17:46:35.449Z,50.87
2023-04-03T17:49:50.743Z,51.08
2023-04-03T17:52:59.626Z,51.99
2023-04-03T17:56:17.109Z,51.60
2023-04-03T17:59:38.810Z,51.70
2023-04-03T18:02:41.421Z,52.15
2023-04-03T18:06:03.989Z,51.84
2023-04-03T18:09:17.141Z,52.78
2023-04-03T18:12:26.985Z,52.05
2023-04-03T18:15:43.177Z,52.44
2023-04-03T18:19:02.465Z,52.08
2023-04-03T18:22:30.954Z,53.64
2023-04-03T18:25:39.826Z,52.49
2023-04-03T18:28:54.828Z,52.02
2023-04-03T18:32:12.116Z,52.40
2023-04-03T18:35:21.076Z,52.42
2023-04-03T18:38:30.720Z,52.53
2023-04-03T18:41:47.210Z,53.33
2023-04-03T18:45:00.317Z,52.61
2023-04-03T18:48:10.672Z,51.69
2023-04-03T18:51:26.166Z,52.43
2023-04-03T18:54:34.680Z,51.56
2023-04-03T18:57:50.212Z,51.59
2023-04-03T19:01:00.179Z,51.61
2023-04-03T19:04:23.209Z,50.62
2023-04-03T19:07:33.110Z,50.35
2023-04-03T19:10:48.165Z,49.29
2023-04-03T19:14:14.503Z,48.26
2023-04-03T19:17:31.267Z,48.30
2023-04-03T19:20:40.310Z,47.76
2023-04-03T19:23:56.278Z,47.81
2023-04-03T19:27:05.914Z,47.36
2023-04-03T19:30:22.142Z,47.31
2023-04-03T19:33:30.619Z,47.54
2023-04-03T19:36:41.200Z,47.55
2023-04-03T19:39:56.105Z,47.31
2023-04-03T19:42:58.897Z,47.77
2023-04-03T19:46:16.091Z,46.85
2023-04-03T19:49:31.106Z,46.94
2023-04-03T19:52:39.624Z,46.70
2023-04-03T19:55:56.175Z,47.41
2023-04-03T19:59:05.136Z,47.00
2023-04-03T20:02:19.744Z,47.66
2023-04-03T20:05:35.798Z,47.98
2023-04-03T20:08:50.783Z,47.36
2023-04-03T20:12:00.124Z,47.45
2023-04-03T20:15:10.155Z,48.02
2023-04-03T20:18:26.744Z,47.29
2023-04-03T20:21:36.088Z,48.23
2023-04-03T20:24:50.709Z,47.89
2023-04-03T20:28:05.687Z,47.85
2023-04-03T20:31:20.757Z,48.05
2023-04-03T20:34:35.969Z,47.74
2023-04-03T20:37:44.713Z,47.57
2023-04-03T20:40:53.334Z,47.17
2023-04-03T20:44:09.063Z,47.42
2023-04-03T20:47:11.247Z,47.62
2023-04-03T20:50:26.726Z,47.06
2023-04-03T20:53:28.766Z,47.17
2023-04-03T20:56:43.694Z,47.25
2023-04-03T20:59:59.693Z,47.12
2023-04-03T21:03:08.097Z,46.91
2023-04-03T21:07:00.698Z,47.01
2023-04-03T21:10:53.695Z,46.79
2023-04-03T21:14:46.786Z,46.79
2023-04-03T21:18:21.719Z,46.87
2023-04-03T21:21:36.722Z,47.13
2023-04-03T21:24:38.682Z,47.03
2023-04-03T21:27:54.750Z,47.32
2023-04-03T21:31:09.726Z,47.11
2023-04-03T21:34:25.729Z,48.11
2023-04-03T21:37:40.697Z,46.59
2023-04-03T21:40:43.454Z,46.94
2023-04-03T21:43:58.687Z,46.91
2023-04-03T21:47:07.303Z,47.04
2023-04-03T21:50:16.815Z,46.55
2023-04-03T21:53:31.729Z,46.75
2023-04-03T21:56:39.737Z,47.00
2023-04-03T21:59:48.521Z,47.14
2023-04-03T22:03:10.904Z,48.39
2023-04-03T22:06:21.709Z,48.27
2023-04-03T22:09:30.463Z,47.92
2023-04-03T22:12:45.703Z,48.53
2023-04-03T22:15:47.571Z,48.84
2023-04-03T22:19:02.738Z,48.77
2023-04-03T22:22:11.497Z,48.68
2023-04-03T22:25:19.691Z,48.91
2023-04-03T22:28:36.718Z,48.82
2023-04-03T22:31:45.758Z,48.43
2023-04-03T22:35:00.721Z,49.02
2023-04-03T22:38:09.265Z,49.02
2023-04-03T22:41:23.694Z,48.58
2023-04-03T22:44:38.699Z,48.95
2023-04-03T22:47:47.430Z,49.16
2023-04-03T22:51:02.720Z,49.17
2023-04-03T22:54:11.699Z,49.23
2023-04-03T22:57:26.700Z,48.90
2023-04-03T23:00:35.494Z,48.40
2023-04-03T23:03:50.697Z,49.03
2023-04-03T23:06:58.708Z,49.93
2023-04-03T23:10:08.311Z,49.74
2023-04-03T23:13:22.700Z,49.05
2023-04-03T23:16:37.748Z,49.43
2023-04-03T23:19:46.301Z,49.27
2023-04-03T23:22:54.714Z,48.75
2023-04-03T23:26:03.413Z,48.97
2023-04-03T23:29:18.738Z,49.48
2023-04-03T23:32:33.742Z,49.18
2023-04-03T23:35:35.689Z,49.02
2023-04-03T23:38:50.724Z,49.79
2023-04-03T23:41:52.626Z,50.52
2023-04-03T23:45:07.716Z,49.85
2023-04-03T23:48:23.703Z,50.79
2023-04-03T23:51:25.587Z,50.43
2023-04-03T23:54:40.719Z,50.77
2023-04-03T23:57:49.549Z,51.33
